createdAt,value
2023-04-01T00:01:50.457Z,17.67
2023-04-01T00:04:17.865Z,21.58
2023-04-01T00:06:44.953Z,17.08
2023-04-01T00:09:12.027Z,18.60
2023-04-01T00:11:39.631Z,19.55
2023-04-01T00:14:07.817Z,18.42
2023-04-01T00:16:35.114Z,16.35
2023-04-01T00:19:02.526Z,17.67
2023-04-01T00:21:29.849Z,18.08
2023-04-01T00:23:57.028Z,18.73
2023-04-01T00:26:24.160Z,15.45
2023-04-01T00:28:51.629Z,17.52
2023-04-01T00:31:18.731Z,19.90
2023-04-01T00:33:45.822Z,18.45
2023-04-01T00:36:18.904Z,17.58
2023-04-01T00:41:16.795Z,16.25
2023-04-01T00:43:46.783Z,14.77
2023-04-01T00:46:14.259Z,15.00
2023-04-01T00:48:45.327Z,16.23
2023-04-01T00:51:19.598Z,14.57
2023-04-01T00:53:50.018Z,14.32
2023-04-01T00:56:26.265Z,16.95
2023-04-01T00:59:01.380Z,14.45
2023-04-01T01:01:30.858Z,15.82
2023-04-01T01:03:58.075Z,17.08
2023-04-01T01:06:44.096Z,14.80
2023-04-01T01:09:23.120Z,15.90
2023-04-01T01:12:12.118Z,14.60
2023-04-01T01:14:39.114Z,17.92
2023-04-01T01:17:21.793Z,15.10
2023-04-01T01:20:15.486Z,14.38
2023-04-01T01:23:04.649Z,15.18
2023-04-01T01:25:43.342Z,14.57
2023-04-01T01:28:23.464Z,14.80
2023-04-01T01:31:08.936Z,19.42
2023-04-01T01:34:01.131Z,15.52
2023-04-01T01:36:32.398Z,18.15
2023-04-01T01:39:00.041Z,15.50
2023-04-01T01:41:28.766Z,17.98
2023-04-01T01:43:59.031Z,15.15
2023-04-01T01:46:29.440Z,17.75
2023-04-01T01:48:57.604Z,17.63
2023-04-01T01:51:25.363Z,17.33
2023-04-01T01:53:52.357Z,17.08
2023-04-01T01:56:22.766Z,19.10
2023-04-01T01:58:55.638Z,17.15
2023-04-01T02:01:27.906Z,19.45
2023-04-01T02:03:56.589Z,18.48
2023-04-01T02:06:26.797Z,17.83
2023-04-01T02:08:58.773Z,19.40
2023-04-01T02:11:52.096Z,18.98
2023-04-01T02:14:23.509Z,19.70
2023-04-01T02:17:13.543Z,18.27
2023-04-01T02:19:53.401Z,18.67
2023-04-01T02:22:29.091Z,20.10
2023-04-01T02:25:00.858Z,20.02
2023-04-01T02:27:28.151Z,18.52
2023-04-01T02:29:55.464Z,18.25
2023-04-01T02:32:22.883Z,18.40
2023-04-01T02:34:50.808Z,16.27
2023-04-01T02:37:18.784Z,17.05
2023-04-01T02:39:45.972Z,17.70
2023-04-01T02:42:14.336Z,18.17
2023-04-01T02:44:41.525Z,15.95
2023-04-01T02:47:08.656Z,19.45
2023-04-01T02:49:35.901Z,17.63
2023-04-01T02:52:02.974Z,18.35
2023-04-01T02:54:29.947Z,17.65
2023-04-01T02:56:57.525Z,17.25
2023-04-01T02:59:24.552Z,17.38
2023-04-01T03:01:51.546Z,17.15
2023-04-01T03:04:18.581Z,17.70
2023-04-01T03:06:45.859Z,17.77
2023-04-01T03:09:12.944Z,19.20
2023-04-01T03:11:39.943Z,17.83
2023-04-01T03:14:08.080Z,16.95
2023-04-01T03:16:36.698Z,19.55
2023-04-01T03:19:03.968Z,19.35
2023-04-01T03:21:31.078Z,18.90
2023-04-01T03:23:58.252Z,18.45
2023-04-01T03:26:25.465Z,18.55
2023-04-01T03:28:52.574Z,19.00
2023-04-01T03:31:22.345Z,19.48
2023-04-01T03:33:50.962Z,18.23
2023-04-01T03:36:19.191Z,18.63
2023-04-01T03:38:46.398Z,18.42
2023-04-01T03:41:17.382Z,19.90
2023-04-01T03:43:44.943Z,18.42
2023-04-01T03:46:12.105Z,19.48
2023-04-01T03:48:39.136Z,21.55
2023-04-01T03:51:10.312Z,18.73
2023-04-01T03:53:37.718Z,17.65
2023-04-01T03:56:06.502Z,20.85
2023-04-01T03:58:33.790Z,22.83
2023-04-01T04:01:01.133Z,25.65
2023-04-01T04:03:28.353Z,23.95
2023-04-01T04:05:57.217Z,26.42
2023-04-01T04:08:24.253Z,23.00
2023-04-01T04:10:57.162Z,23.23
2023-04-01T04:13:24.229Z,23.20
2023-04-01T04:15:51.268Z,22.85
2023-04-01T04:18:18.449Z,20.77
2023-04-01T04:20:52.289Z,19.13
2023-04-01T04:23:19.678Z,18.77
2023-04-01T04:26:05.314Z,19.50
2023-04-01T04:28:33.314Z,16.73
2023-04-01T04:31:01.004Z,18.48
2023-04-01T04:33:28.983Z,19.33
2023-04-01T04:35:58.112Z,18.38
2023-04-01T04:38:26.290Z,16.35
2023-04-01T04:40:53.646Z,16.17
2023-04-01T04:43:21.123Z,17.67
2023-04-01T04:45:48.480Z,16.02
2023-04-01T04:48:19.778Z,16.67
2023-04-01T04:50:51.042Z,15.32
2023-04-01T04:53:19.877Z,17.42
2023-04-01T04:55:48.727Z,16.08
2023-04-01T04:58:16.502Z,14.13
2023-04-01T05:00:44.099Z,16.30
2023-04-01T05:03:12.074Z,15.63
2023-04-01T05:05:39.950Z,14.77
2023-04-01T05:08:07.765Z,16.73
2023-04-01T05:10:35.067Z,14.23
2023-04-01T05:13:02.176Z,15.50
2023-04-01T05:15:29.204Z,17.08
2023-04-01T05:17:56.292Z,17.08
2023-04-01T05:20:23.395Z,14.88
2023-04-01T05:22:50.420Z,14.73
2023-04-01T05:25:17.541Z,13.77
2023-04-01T05:27:44.843Z,13.43
2023-04-01T05:30:12.413Z,13.45
2023-04-01T05:32:39.442Z,11.88
2023-04-01T05:35:06.992Z,12.68
2023-04-01T05:37:36.390Z,13.75
2023-04-01T05:40:04.218Z,13.85
2023-04-01T05:42:31.315Z,15.15
2023-04-01T05:44:58.316Z,15.05
2023-04-01T05:47:25.348Z,12.93
2023-04-01T05:49:52.574Z,13.00
2023-04-01T05:52:19.626Z,14.82
2023-04-01T05:54:46.652Z,12.93
2023-04-01T05:57:13.732Z,13.77
2023-04-01T05:59:40.907Z,13.05
2023-04-01T06:02:09.359Z,17.02
2023-04-01T06:04:41.503Z,14.70
2023-04-01T06:07:16.543Z,15.48
2023-04-01T06:09:44.762Z,19.02
2023-04-01T06:12:26.860Z,16.58
2023-04-01T06:15:23.288Z,14.48
2023-04-01T06:18:17.236Z,17.23
2023-04-01T06:20:59.867Z,14.18
2023-04-01T06:23:32.508Z,15.82
2023-04-01T06:26:14.807Z,15.60
2023-04-01T06:29:07.113Z,15.98
2023-04-01T06:32:06.637Z,18.73
2023-04-01T06:35:01.799Z,15.80
2023-04-01T06:37:46.606Z,17.50
2023-04-01T06:40:30.780Z,12.65
2023-04-01T06:43:09.178Z,14.90
2023-04-01T06:46:30.065Z,17.40
2023-04-01T06:49:06.477Z,17.45
2023-04-01T06:51:47.709Z,18.25
2023-04-01T06:54:26.343Z,20.88
2023-04-01T06:57:01.768Z,19.55
2023-04-01T06:59:34.750Z,18.33
2023-04-01T07:02:28.046Z,21.65
2023-04-01T07:04:57.025Z,22.33
2023-04-01T07:07:44.245Z,19.85
2023-04-01T07:10:24.699Z,22.45
2023-04-01T07:12:56.009Z,21.35
2023-04-01T07:15:32.006Z,24.08
2023-04-01T07:18:06.016Z,20.75
2023-04-01T07:20:36.425Z,20.25
2023-04-01T07:23:46.816Z,20.98
2023-04-01T07:26:22.059Z,22.75
2023-04-01T07:28:50.252Z,19.23
2023-04-01T07:31:17.339Z,20.40
2023-04-01T07:33:52.986Z,19.88
2023-04-01T07:36:50.125Z,17.80
2023-04-01T07:39:19.919Z,20.10
2023-04-01T07:42:00.876Z,19.92
2023-04-01T07:45:06.353Z,21.02
2023-04-01T07:47:59.774Z,19.98
2023-04-01T07:50:33.717Z,23.00
2023-04-01T07:53:09.972Z,18.77
2023-04-01T07:55:56.942Z,20.02
2023-04-01T07:58:35.525Z,19.65
2023-04-01T08:01:21.145Z,20.67
2023-04-01T08:04:23.190Z,20.77
2023-04-01T08:07:08.046Z,19.52
2023-04-01T08:10:00.750Z,19.70
2023-04-01T08:12:27.939Z,17.97
2023-04-01T08:15:25.051Z,17.50
2023-04-01T08:18:15.641Z,18.25
2023-04-01T08:21:01.818Z,16.75
2023-04-01T08:23:32.652Z,18.13
2023-04-01T08:26:10.393Z,16.67
2023-04-01T08:28:54.157Z,18.42
2023-04-01T08:31:42.000Z,16.67
2023-04-01T08:34:24.439Z,15.50
2023-04-01T08:37:09.483Z,14.43
2023-04-01T08:39:40.654Z,16.17
2023-04-01T08:42:16.197Z,15.50
2023-04-01T08:45:14.301Z,13.57
2023-04-01T08:47:50.299Z,15.50
2023-04-01T08:50:50.912Z,15.07
2023-04-01T08:53:18.089Z,16.13
2023-04-01T08:56:09.563Z,15.68
2023-04-01T08:58:56.806Z,14.93
2023-04-01T09:01:34.629Z,15.20
2023-04-01T09:04:38.965Z,14.63
2023-04-01T09:07:34.065Z,14.80
2023-04-01T09:10:07.128Z,15.10
2023-04-01T09:12:56.574Z,14.18
2023-04-01T09:15:42.072Z,10.07
2023-04-01T09:18:30.938Z,11.13
2023-04-01T09:21:24.391Z,10.05
2023-04-01T09:26:59.769Z,13.13
2023-04-01T09:29:56.264Z,11.45
2023-04-01T09:32:41.705Z,13.68
2023-04-01T09:35:17.826Z,10.02
2023-04-01T09:37:50.114Z,11.95
2023-04-01T09:40:31.708Z,12.98
2023-04-01T09:43:29.876Z,10.48
2023-04-01T09:46:09.556Z,11.25
2023-04-01T09:48:39.600Z,10.48
2023-04-01T09:51:12.944Z,11.20
2023-04-01T09:54:13.628Z,12.38
2023-04-01T09:57:07.914Z,8.13
2023-04-01T09:59:48.435Z,7.63
2023-04-01T10:02:53.084Z,7.35
2023-04-01T10:05:41.539Z,7.18
2023-04-01T10:08:17.393Z,8.13
2023-04-01T10:11:20.805Z,8.25
2023-04-01T10:14:25.651Z,7.63
2023-04-01T10:17:17.477Z,7.82
2023-04-01T10:20:21.426Z,6.55
2023-04-01T10:22:56.966Z,7.03
2023-04-01T10:26:06.045Z,7.55
2023-04-01T10:28:51.797Z,6.20
2023-04-01T10:31:48.924Z,6.70
2023-04-01T10:34:25.057Z,7.53
2023-04-01T10:36:55.098Z,6.55
2023-04-01T10:39:35.936Z,10.95
2023-04-01T10:42:19.759Z,5.95
2023-04-01T10:45:11.831Z,6.85
2023-04-01T10:48:04.352Z,6.07
2023-04-01T10:50:46.196Z,7.57
2023-04-01T10:53:19.127Z,5.43
2023-04-01T10:56:04.918Z,6.72
2023-04-01T10:59:13.521Z,6.43
2023-04-01T11:02:09.973Z,6.07
2023-04-01T11:04:44.384Z,6.88
2023-04-01T11:07:11.453Z,6.63
2023-04-01T11:10:16.839Z,5.75
2023-04-01T11:13:34.613Z,6.22
2023-04-01T11:16:31.393Z,6.82
2023-04-01T11:19:16.867Z,6.22
2023-04-01T11:22:19.395Z,5.20
2023-04-01T11:25:07.368Z,8.20
2023-04-01T11:27:39.841Z,8.20
2023-04-01T11:30:40.705Z,6.70
2023-04-01T11:33:35.012Z,8.90
2023-04-01T11:36:08.969Z,6.75
2023-04-01T11:38:55.132Z,6.72
2023-04-01T11:41:59.344Z,6.50
2023-04-01T11:44:30.131Z,8.88
2023-04-01T11:47:18.525Z,9.05
2023-04-01T11:49:51.645Z,12.20
2023-04-01T11:55:22.745Z,9.85
2023-04-01T11:58:07.674Z,11.50
2023-04-01T12:01:07.980Z,10.93
2023-04-01T12:04:02.922Z,13.77
2023-04-01T12:06:53.576Z,10.63
2023-04-01T12:09:32.571Z,15.18
2023-04-01T12:12:15.118Z,11.50
2023-04-01T12:15:05.670Z,10.33
2023-04-01T12:17:57.768Z,10.75
2023-04-01T12:20:25.058Z,11.98
2023-04-01T12:23:17.661Z,10.15
2023-04-01T12:26:08.366Z,12.50
2023-04-01T12:28:43.444Z,8.00
2023-04-01T12:31:43.405Z,9.80
2023-04-01T12:34:19.452Z,13.32
2023-04-01T12:37:22.026Z,9.35
2023-04-01T12:39:56.520Z,14.00
2023-04-01T12:43:04.904Z,10.32
2023-04-01T12:45:37.349Z,9.10
2023-04-01T12:48:28.576Z,11.35
2023-04-01T12:51:07.047Z,9.48
2023-04-01T12:53:58.149Z,7.65
2023-04-01T12:56:40.079Z,11.27
2023-04-01T12:59:43.746Z,14.27
2023-04-01T13:02:15.005Z,11.70
2023-04-01T13:05:20.788Z,11.80
2023-04-01T13:08:28.785Z,9.30
2023-04-01T13:11:11.030Z,11.07
2023-04-01T13:13:49.272Z,17.85
2023-04-01T13:16:30.859Z,13.32
2023-04-01T13:19:06.972Z,9.48
2023-04-01T13:21:55.673Z,9.40
2023-04-01T13:24:48.234Z,8.80
2023-04-01T13:27:37.002Z,9.67
2023-04-01T13:30:09.989Z,7.35
2023-04-01T13:33:02.498Z,8.65
2023-04-01T13:35:35.532Z,7.32
2023-04-01T13:38:21.166Z,7.63
2023-04-01T13:41:09.580Z,9.57
2023-04-01T13:43:53.742Z,8.95
2023-04-01T13:46:41.384Z,15.20
2023-04-01T13:49:18.939Z,9.30
2023-04-01T13:52:16.869Z,9.25
2023-04-01T13:55:03.858Z,11.98
2023-04-01T13:57:40.592Z,9.02
2023-04-01T14:00:17.007Z,9.30
2023-04-01T14:03:06.152Z,10.48
2023-04-01T14:05:55.323Z,12.75
2023-04-01T14:08:45.210Z,11.65
2023-04-01T14:11:32.089Z,10.40
2023-04-01T14:14:16.412Z,9.98
2023-04-01T14:17:12.065Z,7.78
2023-04-01T14:20:18.159Z,9.45
2023-04-01T14:23:06.984Z,12.90
2023-04-01T14:26:01.786Z,9.30
2023-04-01T14:28:52.755Z,10.43
2023-04-01T14:31:28.722Z,9.70
2023-04-01T14:34:14.257Z,10.63
2023-04-01T14:36:59.999Z,9.23
2023-04-01T14:39:56.696Z,10.27
2023-04-01T14:42:29.915Z,11.32
2023-04-01T14:45:30.806Z,9.90
2023-04-01T14:48:08.658Z,11.23
2023-04-01T14:50:52.069Z,11.63
2023-04-01T14:55:58.293Z,10.18
2023-04-01T14:58:40.430Z,11.15
2023-04-01T15:01:07.488Z,11.57
2023-04-01T15:03:41.014Z,12.48
2023-04-01T15:07:02.424Z,10.77
2023-04-01T15:09:36.244Z,10.80
2023-04-01T15:12:25.922Z,11.45
2023-04-01T15:15:14.311Z,11.63
2023-04-01T15:17:59.883Z,12.68
2023-04-01T15:21:13.652Z,11.90
2023-04-01T15:23:58.301Z,12.63
2023-04-01T15:26:57.922Z,12.07
2023-04-01T15:29:43.582Z,10.55
2023-04-01T15:32:22.854Z,15.43
2023-04-01T15:35:16.224Z,14.05
2023-04-01T15:37:46.001Z,12.10
2023-04-01T15:40:29.341Z,14.75
2023-04-01T15:45:59.754Z,12.10
2023-04-01T15:48:54.024Z,12.73
2023-04-01T15:51:21.430Z,11.98
2023-04-01T15:54:03.549Z,11.85
2023-04-01T15:57:04.035Z,11.13
2023-04-01T16:00:03.818Z,11.93
2023-04-01T16:02:53.181Z,11.80
2023-04-01T16:05:50.410Z,10.95
2023-04-01T16:08:26.511Z,13.55
2023-04-01T16:11:24.062Z,15.25
2023-04-01T16:14:09.119Z,13.43
2023-04-01T16:17:11.700Z,11.27
2023-04-01T16:20:03.388Z,10.82
2023-04-01T16:22:41.108Z,13.88
2023-04-01T16:25:32.990Z,12.80
2023-04-01T16:28:31.805Z,11.80
2023-04-01T16:31:06.768Z,12.18
2023-04-01T16:33:48.288Z,12.23
2023-04-01T16:36:42.263Z,13.57
2023-04-01T16:39:42.117Z,11.45
2023-04-01T16:42:25.601Z,16.25
2023-04-01T16:45:08.272Z,11.68
2023-04-01T16:47:55.712Z,12.80
2023-04-01T16:50:41.019Z,13.88
2023-04-01T16:53:50.894Z,12.00
2023-04-01T16:56:26.717Z,11.40
2023-04-01T16:59:00.998Z,17.67
2023-04-01T17:01:58.026Z,16.10
2023-04-01T17:04:43.400Z,13.48
2023-04-01T17:07:41.381Z,11.88
2023-04-01T17:10:17.896Z,15.05
2023-04-01T17:13:16.836Z,11.25
2023-04-01T17:16:02.431Z,12.15
2023-04-01T17:18:59.771Z,12.75
2023-04-01T17:21:48.570Z,11.73
2023-04-01T17:24:36.298Z,14.25
2023-04-01T17:27:35.891Z,12.90
2023-04-01T17:30:14.240Z,12.10
2023-04-01T17:32:47.240Z,13.70
2023-04-01T17:38:42.165Z,13.50
2023-04-01T17:41:38.443Z,11.82
2023-04-01T17:44:24.424Z,14.00
2023-04-01T17:47:11.311Z,13.35
2023-04-01T17:50:10.139Z,13.02
2023-04-01T17:52:58.338Z,14.00
2023-04-01T17:56:04.027Z,15.38
2023-04-01T17:58:45.258Z,13.73
2023-04-01T18:01:38.465Z,14.52
2023-04-01T18:04:24.460Z,15.02
2023-04-01T18:07:32.422Z,13.80
2023-04-01T18:10:14.428Z,13.82
2023-04-01T18:13:00.157Z,12.52
2023-04-01T18:15:55.171Z,12.68
2023-04-01T18:18:37.165Z,14.48
2023-04-01T18:21:27.568Z,13.90
2023-04-01T18:24:02.762Z,14.10
2023-04-01T18:26:38.053Z,13.35
2023-04-01T18:29:19.363Z,13.27
2023-04-01T18:31:51.416Z,15.23
2023-04-01T18:34:40.139Z,14.57
2023-04-01T18:37:25.022Z,15.02
2023-04-01T18:40:13.096Z,14.10
2023-04-01T18:42:55.129Z,15.65
2023-04-01T18:45:30.583Z,14.88
2023-04-01T18:48:37.553Z,13.35
2023-04-01T18:51:14.742Z,17.55
2023-04-01T18:53:57.609Z,15.50
2023-04-01T18:56:26.858Z,13.85
2023-04-01T18:58:59.464Z,15.63
2023-04-01T19:01:34.760Z,15.82
2023-04-01T19:04:24.957Z,14.50
2023-04-01T19:06:56.705Z,15.77
2023-04-01T19:09:32.836Z,15.43
2023-04-01T19:12:21.884Z,14.00
2023-04-01T19:15:07.531Z,15.35
2023-04-01T19:17:43.827Z,15.45
2023-04-01T19:20:20.047Z,17.83
2023-04-01T19:23:05.306Z,16.70
2023-04-01T19:25:50.299Z,17.05
2023-04-01T19:28:29.145Z,14.43
2023-04-01T19:31:17.279Z,17.45
2023-04-01T19:34:22.731Z,14.88
2023-04-01T19:37:01.250Z,16.08
2023-04-01T19:39:49.747Z,17.88
2023-04-01T19:42:39.245Z,14.40
2023-04-01T19:45:41.637Z,15.77
2023-04-01T19:48:44.203Z,18.35
2023-04-01T19:51:15.514Z,15.30
2023-04-01T19:53:47.319Z,15.30
2023-04-01T19:56:40.602Z,17.52
2023-04-01T19:59:10.273Z,14.85
2023-04-01T20:02:00.579Z,16.23
2023-04-01T20:04:35.977Z,16.17
2023-04-01T20:07:30.524Z,18.17
2023-04-01T20:10:00.160Z,15.35
2023-04-01T20:12:56.639Z,16.10
2023-04-01T20:15:40.491Z,18.67
2023-04-01T20:18:22.301Z,14.77
2023-04-01T20:21:17.965Z,16.85
2023-04-01T20:23:49.432Z,20.25
2023-04-01T20:26:22.887Z,15.90
2023-04-01T20:29:23.326Z,18.15
2023-04-01T20:32:06.746Z,17.70
2023-04-01T20:35:02.325Z,16.17
2023-04-01T20:37:45.490Z,16.35
2023-04-01T20:40:40.014Z,19.80
2023-04-01T20:43:31.990Z,17.88
2023-04-01T20:46:18.010Z,18.45
2023-04-01T20:48:47.854Z,20.42
2023-04-01T20:51:31.337Z,19.02
2023-04-01T20:54:04.176Z,18.23
2023-04-01T20:56:31.797Z,18.63
2023-04-01T20:59:14.073Z,20.25
2023-04-01T21:01:47.457Z,18.63
2023-04-01T21:04:31.599Z,18.30
2023-04-01T21:07:12.922Z,19.33
2023-04-01T21:09:55.107Z,19.75
2023-04-01T21:12:45.777Z,23.42
2023-04-01T21:15:48.294Z,19.05
2023-04-01T21:18:59.170Z,18.60
2023-04-01T21:21:44.199Z,19.92
2023-04-01T21:24:13.971Z,17.20
2023-04-01T21:27:05.506Z,23.35
2023-04-01T21:29:51.161Z,19.48
2023-04-01T21:32:57.529Z,18.13
2023-04-01T21:35:51.413Z,19.63
2023-04-01T21:39:03.739Z,17.75
2023-04-01T21:42:03.154Z,16.67
2023-04-01T21:45:05.380Z,18.52
2023-04-01T21:47:35.702Z,17.25
2023-04-01T21:50:16.231Z,17.25
2023-04-01T21:53:07.978Z,17.77
2023-04-01T21:55:56.439Z,20.02
2023-04-01T21:59:04.883Z,18.17
2023-04-01T22:02:11.429Z,19.65
2023-04-01T22:05:46.688Z,19.77
2023-04-01T22:08:47.025Z,20.05
2023-04-01T22:11:22.780Z,20.80
2023-04-01T22:14:09.013Z,19.05
2023-04-01T22:17:04.528Z,20.05
2023-04-01T22:19:41.667Z,17.70
2023-04-01T22:22:26.470Z,21.80
2023-04-01T22:25:08.833Z,22.55
2023-04-01T22:27:53.742Z,17.97
2023-04-01T22:30:25.924Z,18.85
2023-04-01T22:33:03.669Z,21.63
2023-04-01T22:35:45.431Z,18.23
2023-04-01T22:38:17.947Z,19.95
2023-04-01T22:40:50.819Z,19.70
2023-04-01T22:43:39.811Z,18.75
2023-04-01T22:46:22.660Z,20.58
2023-04-01T22:49:04.508Z,19.98
2023-04-01T22:52:16.612Z,19.52
2023-04-01T22:54:46.723Z,22.92
2023-04-01T22:57:16.619Z,22.05
2023-04-01T22:59:54.038Z,24.52
2023-04-01T23:02:34.941Z,21.65
2023-04-01T23:05:06.444Z,19.65
2023-04-01T23:08:02.586Z,19.73
2023-04-01T23:10:43.789Z,21.77
2023-04-01T23:13:23.651Z,21.58
2023-04-01T23:15:54.107Z,22.95
2023-04-01T23:18:46.294Z,23.17
2023-04-01T23:21:38.101Z,22.08
2023-04-01T23:24:12.927Z,22.25
2023-04-01T23:27:03.652Z,27.70
2023-04-01T23:29:31.201Z,22.35
2023-04-01T23:32:03.792Z,26.58
2023-04-01T23:34:36.006Z,26.77
2023-04-01T23:37:13.126Z,26.13
2023-04-01T23:39:46.181Z,24.55
2023-04-01T23:44:44.985Z,25.17
2023-04-01T23:47:18.374Z,27.63
2023-04-01T23:50:12.005Z,23.67
2023-04-01T23:52:47.241Z,29.63
2023-04-01T23:55:26.270Z,28.52
2023-04-01T23:58:24.105Z,25.92
